createdAt,value
2023-05-17T00:01:06.353Z,102520.28
2023-05-17T00:03:35.556Z,102530.91
2023-05-17T00:06:03.472Z,102525.50
2023-05-17T00:08:31.919Z,102528.88
2023-05-17T00:10:59.827Z,102518.81
2023-05-17T00:13:27.803Z,102514.06
2023-05-17T00:15:55.672Z,102515.44
2023-05-17T00:18:23.816Z,102521.44
2023-05-17T00:20:53.099Z,102518.44
2023-05-17T00:23:20.880Z,102517.16
2023-05-17T00:25:48.699Z,102510.88
2023-05-17T00:28:16.498Z,102508.38
2023-05-17T00:30:44.515Z,102514.66
2023-05-17T00:33:12.430Z,102518.03
2023-05-17T00:35:41.331Z,102526.38
2023-05-17T00:38:10.502Z,102517.66
2023-05-17T00:40:38.303Z,102533.66
2023-05-17T00:43:06.126Z,102534.22
2023-05-17T00:45:33.935Z,102537.72
2023-05-17T00:48:02.475Z,102524.44
2023-05-17T00:50:30.390Z,102529.38
2023-05-17T00:52:58.295Z,102519.31
2023-05-17T00:55:28.076Z,102520.75
2023-05-17T00:57:56.242Z,102522.00
2023-05-17T01:00:24.688Z,102531.69
2023-05-17T01:02:52.794Z,102520.16
2023-05-17T01:05:20.691Z,102526.09
2023-05-17T01:07:48.537Z,102523.47
2023-05-17T01:10:16.483Z,102517.09
2023-05-17T01:13:01.564Z,102519.03
2023-05-17T01:15:33.759Z,102516.59
2023-05-17T01:18:21.328Z,102520.94
2023-05-17T01:20:51.059Z,102529.19
2023-05-17T01:23:36.749Z,102524.72
2023-05-17T01:26:09.135Z,102515.22
2023-05-17T01:28:40.112Z,102522.41
2023-05-17T01:31:09.513Z,102527.03
2023-05-17T01:33:38.805Z,102521.53
2023-05-17T01:36:08.902Z,102521.63
2023-05-17T01:38:36.760Z,102511.56
2023-05-17T01:41:09.047Z,102514.94
2023-05-17T01:43:45.579Z,102514.84
2023-05-17T01:46:20.202Z,102520.47
2023-05-17T01:49:01.881Z,102522.00
2023-05-17T01:51:34.474Z,102518.84
2023-05-17T01:54:09.517Z,102516.00
2023-05-17T01:56:42.073Z,102529.59
2023-05-17T01:59:16.020Z,102508.53
2023-05-17T02:01:44.368Z,102513.31
2023-05-17T02:04:12.228Z,102506.81
2023-05-17T02:06:41.539Z,102512.03
2023-05-17T02:09:09.377Z,102517.66
2023-05-17T02:11:37.967Z,102504.47
2023-05-17T02:14:06.061Z,102515.06
2023-05-17T02:16:36.569Z,102511.72
2023-05-17T02:19:04.440Z,102502.16
2023-05-17T02:21:32.334Z,102510.00
2023-05-17T02:24:00.113Z,102521.63
2023-05-17T02:26:27.922Z,102512.91
2023-05-17T02:28:55.739Z,102518.53
2023-05-17T02:31:24.935Z,102481.28
2023-05-17T02:33:54.484Z,102508.25
2023-05-17T02:36:22.621Z,102521.03
2023-05-17T02:38:50.758Z,102524.34
2023-05-17T02:41:18.677Z,102527.03
2023-05-17T02:43:46.549Z,102525.28
2023-05-17T02:46:14.456Z,102523.56
2023-05-17T02:48:42.294Z,102497.88
2023-05-17T02:51:11.701Z,102520.88
2023-05-17T02:53:39.550Z,102525.97
2023-05-17T02:56:08.404Z,102519.50
2023-05-17T02:58:36.296Z,102525.69
2023-05-17T03:01:04.076Z,102531.13
2023-05-17T03:03:32.499Z,102525.91
2023-05-17T03:06:01.890Z,102541.22
2023-05-17T03:08:31.298Z,102547.63
2023-05-17T03:10:59.086Z,102534.81
2023-05-17T03:13:26.845Z,102545.88
2023-05-17T03:15:55.138Z,102540.63
2023-05-17T03:18:23.001Z,102549.72
2023-05-17T03:20:50.872Z,102540.63
2023-05-17T03:23:18.782Z,102545.88
2023-05-17T03:25:47.980Z,102543.84
2023-05-17T03:28:15.790Z,102550.22
2023-05-17T03:30:43.684Z,102547.41
2023-05-17T03:33:11.612Z,102552.38
2023-05-17T03:35:39.472Z,102551.56
2023-05-17T03:38:07.248Z,102553.81
2023-05-17T03:40:35.113Z,102558.25
2023-05-17T03:43:04.537Z,102559.25
2023-05-17T03:45:32.314Z,102555.75
2023-05-17T03:48:00.254Z,102563.59
2023-05-17T03:50:28.263Z,102554.50
2023-05-17T03:52:56.060Z,102563.22
2023-05-17T03:55:24.179Z,102567.56
2023-05-17T03:57:51.990Z,102575.50
2023-05-17T04:00:22.426Z,102570.88
2023-05-17T04:02:52.141Z,102579.59
2023-05-17T04:05:20.847Z,102579.41
2023-05-17T04:07:48.744Z,102577.66
2023-05-17T04:10:16.861Z,102589.00
2023-05-17T04:12:44.660Z,102587.56
2023-05-17T04:15:12.875Z,102596.44
2023-05-17T04:17:42.168Z,102593.38
2023-05-17T04:20:11.172Z,102604.81
2023-05-17T04:22:38.974Z,102586.69
2023-05-17T04:25:08.454Z,102611.50
2023-05-17T04:27:36.795Z,102610.31
2023-05-17T04:30:05.395Z,102616.66
2023-05-17T04:32:34.282Z,102619.53
2023-05-17T04:35:03.521Z,102626.44
2023-05-17T04:37:31.646Z,102631.88
2023-05-17T04:39:59.775Z,102630.41
2023-05-17T04:42:27.841Z,102635.06
2023-05-17T04:44:57.790Z,102637.69
2023-05-17T04:47:26.068Z,102643.22
2023-05-17T04:49:53.919Z,102646.63
2023-05-17T04:52:23.173Z,102648.81
2023-05-17T04:54:52.185Z,102643.97
2023-05-17T04:57:19.937Z,102649.50
2023-05-17T04:59:47.729Z,102651.25
2023-05-17T05:02:15.535Z,102655.03
2023-05-17T05:04:43.459Z,102661.31
2023-05-17T05:07:11.367Z,102665.69
2023-05-17T05:09:40.602Z,102661.44
2023-05-17T05:12:09.288Z,102667.53
2023-05-17T05:14:37.021Z,102674.03
2023-05-17T05:17:04.970Z,102670.75
2023-05-17T05:19:32.913Z,102682.97
2023-05-17T05:22:00.743Z,102676.16
2023-05-17T05:24:28.609Z,102680.34
2023-05-17T05:26:57.881Z,102686.00
2023-05-17T05:29:25.683Z,102689.34
2023-05-17T05:31:53.790Z,102689.28
2023-05-17T05:34:21.607Z,102702.22
2023-05-17T05:36:49.470Z,102696.78
2023-05-17T05:39:17.392Z,102700.94
2023-05-17T05:41:45.996Z,102701.44
2023-05-17T05:44:15.269Z,102712.78
2023-05-17T05:46:43.141Z,102707.16
2023-05-17T05:49:11.000Z,102712.72
2023-05-17T05:51:38.850Z,102711.34
2023-05-17T05:54:09.508Z,102721.72
2023-05-17T05:56:37.340Z,102717.66
2023-05-17T05:59:05.121Z,102727.81
2023-05-17T06:01:34.298Z,102727.25
2023-05-17T06:04:02.270Z,102727.81
2023-05-17T06:06:30.640Z,102734.72
2023-05-17T06:08:59.742Z,102734.97
2023-05-17T06:11:27.921Z,102726.47
2023-05-17T06:13:55.795Z,102735.03
2023-05-17T06:16:23.599Z,102728.88
2023-05-17T06:18:52.783Z,102735.34
2023-05-17T06:21:20.690Z,102727.84
2023-05-17T06:23:48.898Z,102732.59
2023-05-17T06:26:16.747Z,102734.66
2023-05-17T06:28:44.544Z,102734.03
2023-05-17T06:31:12.340Z,102720.38
2023-05-17T06:33:40.162Z,102742.81
2023-05-17T06:36:09.883Z,102740.44
2023-05-17T06:38:37.629Z,102746.75
2023-05-17T06:41:05.480Z,102745.53
2023-05-17T06:43:35.528Z,102745.84
2023-05-17T06:46:04.198Z,102754.78
2023-05-17T06:48:32.198Z,102755.56
2023-05-17T06:51:00.061Z,102752.16
2023-05-17T06:53:29.222Z,102759.06
2023-05-17T06:55:57.063Z,102757.53
2023-05-17T06:58:24.822Z,102753.19
2023-05-17T07:00:52.766Z,102759.28
2023-05-17T07:03:20.786Z,102768.75
2023-05-17T07:05:48.667Z,102771.38
2023-05-17T07:08:16.493Z,102772.34
2023-05-17T07:10:45.707Z,102770.47
2023-05-17T07:13:13.532Z,102771.13
2023-05-17T07:15:41.552Z,102778.91
2023-05-17T07:18:09.461Z,102773.75
2023-05-17T07:20:37.475Z,102752.38
2023-05-17T07:23:05.367Z,102761.06
2023-05-17T07:25:33.155Z,102761.78
2023-05-17T07:28:02.393Z,102764.69
2023-05-17T07:30:30.207Z,102772.56
2023-05-17T07:32:58.087Z,102773.09
2023-05-17T07:35:25.944Z,102775.63
2023-05-17T07:37:53.802Z,102781.13
2023-05-17T07:40:22.104Z,102787.66
2023-05-17T07:42:50.234Z,102797.28
2023-05-17T07:45:20.036Z,102790.44
2023-05-17T07:47:51.219Z,102781.31
2023-05-17T07:50:19.635Z,102786.09
2023-05-17T07:52:48.297Z,102798.56
2023-05-17T07:55:17.149Z,102796.41
2023-05-17T07:57:47.430Z,102793.03
2023-05-17T08:00:19.317Z,102800.91
2023-05-17T08:02:48.567Z,102803.97
2023-05-17T08:05:16.769Z,102804.16
2023-05-17T08:07:44.586Z,102794.91
2023-05-17T08:10:13.001Z,102806.22
2023-05-17T08:12:41.297Z,102801.25
2023-05-17T08:15:10.014Z,102814.34
2023-05-17T08:17:37.904Z,102816.25
2023-05-17T08:20:08.919Z,102813.38
2023-05-17T08:22:36.972Z,102816.56
2023-05-17T08:25:05.181Z,102814.41
2023-05-17T08:27:33.122Z,102814.59
2023-05-17T08:30:00.987Z,102815.81
2023-05-17T08:32:29.388Z,102805.59
2023-05-17T08:34:57.873Z,102809.22
2023-05-17T08:37:27.352Z,102815.47
2023-05-17T08:39:55.300Z,102813.31
2023-05-17T08:42:25.319Z,102816.97
2023-05-17T08:44:54.023Z,102811.19
2023-05-17T08:47:30.121Z,102811.59
2023-05-17T08:50:00.613Z,102814.19
2023-05-17T08:52:32.509Z,102812.25
2023-05-17T08:55:05.198Z,102799.75
2023-05-17T08:57:36.348Z,102805.72
2023-05-17T09:00:12.495Z,102805.97
2023-05-17T09:02:40.826Z,102811.22
2023-05-17T09:05:09.979Z,102818.28
2023-05-17T09:07:39.458Z,102798.78
2023-05-17T09:10:08.430Z,102815.84
2023-05-17T09:12:36.755Z,102804.19
2023-05-17T09:15:15.981Z,102812.19
2023-05-17T09:17:44.306Z,102819.91
2023-05-17T09:20:13.135Z,102810.00
2023-05-17T09:22:46.190Z,102820.22
2023-05-17T09:25:14.201Z,102820.56
2023-05-17T09:27:42.347Z,102817.94
2023-05-17T09:30:12.724Z,102816.84
2023-05-17T09:32:45.237Z,102823.94
2023-05-17T09:35:13.602Z,102802.25
2023-05-17T09:37:45.242Z,102832.44
2023-05-17T09:40:24.534Z,102826.47
2023-05-17T09:42:52.591Z,102834.66
2023-05-17T09:45:23.934Z,102832.00
2023-05-17T09:47:53.633Z,102830.81
2023-05-17T09:50:25.968Z,102816.34
2023-05-17T09:52:55.483Z,102827.59
2023-05-17T09:55:27.844Z,102820.03
2023-05-17T09:58:04.193Z,102820.25
2023-05-17T10:00:32.702Z,102816.16
2023-05-17T10:03:02.337Z,102816.25
2023-05-17T10:05:30.864Z,102817.56
2023-05-17T10:08:00.384Z,102806.78
2023-05-17T10:10:28.750Z,102813.28
2023-05-17T10:12:57.528Z,102812.69
2023-05-17T10:15:26.385Z,102802.13
2023-05-17T10:17:55.166Z,102805.84
2023-05-17T10:20:23.522Z,102805.31
2023-05-17T10:22:51.848Z,102805.50
2023-05-17T10:25:22.441Z,102794.44
2023-05-17T10:27:52.084Z,102808.75
2023-05-17T10:30:21.304Z,102804.66
2023-05-17T10:32:51.497Z,102795.66
2023-05-17T10:35:20.790Z,102819.59
2023-05-17T10:37:48.696Z,102809.06
2023-05-17T10:40:20.280Z,102815.28
2023-05-17T10:42:53.398Z,102814.19
2023-05-17T10:45:23.287Z,102809.84
2023-05-17T10:47:52.939Z,102804.28
2023-05-17T10:50:24.272Z,102802.13
2023-05-17T10:52:53.627Z,102808.19
2023-05-17T10:55:22.392Z,102814.16
2023-05-17T10:58:18.831Z,102809.25
2023-05-17T11:00:48.969Z,102804.16
2023-05-17T11:03:19.183Z,102807.19
2023-05-17T11:06:24.604Z,102804.06
2023-05-17T11:09:14.767Z,102810.66
2023-05-17T11:12:05.420Z,102808.06
2023-05-17T11:14:51.120Z,102810.06
2023-05-17T11:17:21.009Z,102803.16
2023-05-17T11:20:03.370Z,102806.06
2023-05-17T11:22:38.673Z,102805.75
2023-05-17T11:25:14.235Z,102811.09
2023-05-17T11:27:46.979Z,102802.78
2023-05-17T11:30:24.457Z,102809.63
2023-05-17T11:32:54.363Z,102813.25
2023-05-17T11:35:27.185Z,102805.25
2023-05-17T11:38:12.865Z,102810.06
2023-05-17T11:40:46.757Z,102801.69
2023-05-17T11:43:16.259Z,102798.03
2023-05-17T11:45:50.611Z,102798.34
2023-05-17T11:48:22.384Z,102797.00
2023-05-17T11:50:51.832Z,102792.44
2023-05-17T11:53:20.081Z,102797.38
2023-05-17T11:55:49.083Z,102799.28
2023-05-17T11:58:18.712Z,102793.31
2023-05-17T12:00:54.419Z,102796.13
2023-05-17T12:03:23.460Z,102793.31
2023-05-17T12:05:53.311Z,102796.47
2023-05-17T12:08:23.152Z,102804.91
2023-05-17T12:10:52.558Z,102788.75
2023-05-17T12:13:20.954Z,102787.34
2023-05-17T12:15:57.149Z,102788.69
2023-05-17T12:18:25.233Z,102791.50
2023-05-17T12:20:57.305Z,102801.13
2023-05-17T12:23:30.616Z,102789.16
2023-05-17T12:26:06.551Z,102785.94
2023-05-17T12:28:34.684Z,102796.00
2023-05-17T12:31:05.096Z,102792.38
2023-05-17T12:33:34.977Z,102799.44
2023-05-17T12:36:04.692Z,102789.00
2023-05-17T12:38:33.713Z,102786.44
2023-05-17T12:41:06.189Z,102782.00
2023-05-17T12:43:34.724Z,102769.91
2023-05-17T12:46:09.509Z,102776.91
2023-05-17T12:48:38.651Z,102761.38
2023-05-17T12:51:12.257Z,102784.75
2023-05-17T12:53:40.570Z,102774.44
2023-05-17T12:56:09.354Z,102780.41
2023-05-17T12:58:37.631Z,102779.16
2023-05-17T13:01:08.247Z,102768.72
2023-05-17T13:03:38.170Z,102767.66
2023-05-17T13:06:09.528Z,102738.47
2023-05-17T13:08:38.250Z,102763.47
2023-05-17T13:11:13.668Z,102764.19
2023-05-17T13:13:42.317Z,102764.91
2023-05-17T13:16:10.165Z,102762.31
2023-05-17T13:18:50.869Z,102760.13
2023-05-17T13:21:20.049Z,102778.06
2023-05-17T13:23:49.001Z,102776.19
2023-05-17T13:26:17.587Z,102774.63
2023-05-17T13:28:46.038Z,102773.28
2023-05-17T13:31:14.048Z,102779.31
2023-05-17T13:33:41.894Z,102781.06
2023-05-17T13:36:12.181Z,102782.81
2023-05-17T13:38:39.944Z,102780.78
2023-05-17T13:41:09.374Z,102769.94
2023-05-17T13:43:37.264Z,102770.13
2023-05-17T13:46:05.108Z,102778.66
2023-05-17T13:48:33.084Z,102768.81
2023-05-17T13:51:02.001Z,102770.28
2023-05-17T13:53:31.374Z,102766.06
2023-05-17T13:55:59.153Z,102777.78
2023-05-17T13:58:26.963Z,102766.81
2023-05-17T14:00:54.917Z,102760.06
2023-05-17T14:03:22.797Z,102761.28
2023-05-17T14:05:53.014Z,102757.69
2023-05-17T14:08:21.192Z,102758.97
2023-05-17T14:10:50.370Z,102752.47
2023-05-17T14:13:18.203Z,102753.63
2023-05-17T14:15:46.144Z,102761.31
2023-05-17T14:18:14.029Z,102758.25
2023-05-17T14:20:41.898Z,102770.16
2023-05-17T14:23:09.674Z,102761.53
2023-05-17T14:25:37.667Z,102764.44
2023-05-17T14:28:07.207Z,102771.75
2023-05-17T14:30:35.201Z,102743.22
2023-05-17T14:33:03.065Z,102756.06
2023-05-17T14:35:31.680Z,102765.00
2023-05-17T14:37:59.471Z,102763.31
2023-05-17T14:40:27.510Z,102764.28
2023-05-17T14:42:56.901Z,102765.13
2023-05-17T14:45:26.126Z,102758.44
2023-05-17T14:47:54.036Z,102765.72
2023-05-17T14:50:21.843Z,102768.50
2023-05-17T14:52:49.756Z,102767.75
2023-05-17T14:55:17.702Z,102766.06
2023-05-17T14:57:45.939Z,102762.78
2023-05-17T15:00:14.560Z,102773.97
2023-05-17T15:02:44.061Z,102756.16
2023-05-17T15:05:12.505Z,102770.69
2023-05-17T15:07:40.567Z,102769.38
2023-05-17T15:10:09.880Z,102764.31
2023-05-17T15:12:37.798Z,102776.81
2023-05-17T15:15:06.713Z,102773.19
2023-05-17T15:17:34.687Z,102770.66
2023-05-17T15:20:04.183Z,102763.03
2023-05-17T15:22:31.928Z,102763.88
2023-05-17T15:24:59.749Z,102772.97
2023-05-17T15:27:27.677Z,102765.13
2023-05-17T15:29:55.575Z,102758.81
2023-05-17T15:32:23.620Z,102758.03
2023-05-17T15:34:52.653Z,102768.03
2023-05-17T15:37:23.048Z,102767.78
2023-05-17T15:39:51.208Z,102767.13
2023-05-17T15:42:21.869Z,102766.72
2023-05-17T15:44:49.725Z,102767.41
2023-05-17T15:47:17.814Z,102770.59
2023-05-17T15:49:46.335Z,102772.69
2023-05-17T15:52:14.146Z,102773.31
2023-05-17T15:54:43.511Z,102773.97
2023-05-17T15:57:11.358Z,102760.22
2023-05-17T15:59:39.287Z,102773.69
2023-05-17T16:02:07.459Z,102775.38
2023-05-17T16:04:35.348Z,102777.75
2023-05-17T16:07:03.240Z,102775.41
2023-05-17T16:09:31.150Z,102779.03
2023-05-17T16:12:00.337Z,102776.41
2023-05-17T16:14:28.134Z,102766.84
2023-05-17T16:16:56.102Z,102767.13
2023-05-17T16:19:26.806Z,102764.53
2023-05-17T16:21:54.680Z,102762.88
2023-05-17T16:24:22.551Z,102761.19
2023-05-17T16:26:50.426Z,102761.78
2023-05-17T16:29:19.668Z,102757.44
2023-05-17T16:31:49.018Z,102753.91
2023-05-17T16:34:16.887Z,102768.97
2023-05-17T16:36:47.725Z,102767.09
2023-05-17T16:39:15.515Z,102780.19
2023-05-17T16:41:43.350Z,102778.63
2023-05-17T16:44:11.330Z,102793.88
2023-05-17T16:46:40.748Z,102788.84
2023-05-17T16:49:08.583Z,102787.69
2023-05-17T16:51:36.394Z,102791.66
2023-05-17T16:54:04.610Z,102779.06
2023-05-17T16:56:32.460Z,102787.28
2023-05-17T16:59:00.261Z,102791.94
2023-05-17T17:01:28.080Z,102788.75
2023-05-17T17:03:57.281Z,102793.66
2023-05-17T17:06:25.490Z,102777.84
2023-05-17T17:08:53.312Z,102788.50
2023-05-17T17:11:21.860Z,102777.84
2023-05-17T17:13:50.071Z,102792.19
2023-05-17T17:16:18.460Z,102785.53
2023-05-17T17:18:47.112Z,102797.91
2023-05-17T17:21:16.454Z,102800.75
2023-05-17T17:23:44.447Z,102801.78
2023-05-17T17:26:12.626Z,102797.31
2023-05-17T17:28:40.668Z,102796.06
2023-05-17T17:31:08.567Z,102792.22
2023-05-17T17:33:36.973Z,102794.34
2023-05-17T17:36:05.473Z,102781.16
2023-05-17T17:38:34.997Z,102788.34
2023-05-17T17:41:03.142Z,102792.59
2023-05-17T17:43:31.061Z,102798.00
2023-05-17T17:45:58.918Z,102779.34
2023-05-17T17:48:26.751Z,102792.53
2023-05-17T17:50:54.617Z,102788.19
2023-05-17T17:53:23.160Z,102790.03
2023-05-17T17:55:52.444Z,102794.50
2023-05-17T17:58:20.245Z,102792.41
2023-05-17T18:00:48.389Z,102797.50
2023-05-17T18:03:16.585Z,102803.41
2023-05-17T18:05:44.594Z,102807.88
2023-05-17T18:08:12.390Z,102806.09
2023-05-17T18:10:41.304Z,102815.59
2023-05-17T18:13:10.526Z,102820.91
2023-05-17T18:15:38.381Z,102814.47
2023-05-17T18:18:06.439Z,102814.59
2023-05-17T18:20:34.422Z,102821.44
2023-05-17T18:23:02.320Z,102805.69
2023-05-17T18:25:30.139Z,102803.47
2023-05-17T18:27:58.222Z,102816.34
2023-05-17T18:30:27.587Z,102816.44
2023-05-17T18:32:55.709Z,102820.25
2023-05-17T18:35:23.818Z,102805.56
2023-05-17T18:37:51.686Z,102819.63
2023-05-17T18:40:19.786Z,102824.03
2023-05-17T18:42:47.924Z,102822.72
2023-05-17T18:45:15.853Z,102821.03
2023-05-17T18:47:45.358Z,102815.06
2023-05-17T18:50:13.257Z,102824.88
2023-05-17T18:52:41.617Z,102828.38
2023-05-17T18:55:09.985Z,102815.91
2023-05-17T18:57:38.021Z,102825.00
2023-05-17T19:00:07.560Z,102838.00
2023-05-17T19:02:35.540Z,102827.84
2023-05-17T19:05:05.298Z,102837.00
2023-05-17T19:07:33.442Z,102834.41
2023-05-17T19:10:01.705Z,102828.28
2023-05-17T19:12:29.653Z,102831.13
2023-05-17T19:14:57.619Z,102836.59
2023-05-17T19:17:25.501Z,102835.94
2023-05-17T19:19:53.542Z,102835.28
2023-05-17T19:22:22.850Z,102832.88
2023-05-17T19:24:51.238Z,102829.59
2023-05-17T19:27:20.549Z,102842.16
2023-05-17T19:29:49.123Z,102828.72
2023-05-17T19:32:17.009Z,102843.44
2023-05-17T19:34:44.940Z,102833.31
2023-05-17T19:37:12.942Z,102830.66
2023-05-17T19:39:42.150Z,102849.66
2023-05-17T19:42:09.995Z,102848.09
2023-05-17T19:44:37.956Z,102845.03
2023-05-17T19:47:06.300Z,102849.63
2023-05-17T19:49:34.161Z,102856.69
2023-05-17T19:52:02.666Z,102851.69
2023-05-17T19:54:30.577Z,102852.69
2023-05-17T19:56:59.950Z,102851.38
2023-05-17T19:59:27.805Z,102858.22
2023-05-17T20:01:56.088Z,102864.41
2023-05-17T20:04:24.312Z,102837.31
2023-05-17T20:06:52.654Z,102863.41
2023-05-17T20:09:21.550Z,102853.88
2023-05-17T20:11:49.520Z,102844.28
2023-05-17T20:14:18.843Z,102857.53
2023-05-17T20:16:47.555Z,102854.63
2023-05-17T20:19:15.556Z,102860.56
2023-05-17T20:21:43.486Z,102859.78
2023-05-17T20:24:11.425Z,102861.66
2023-05-17T20:26:39.644Z,102860.09
2023-05-17T20:29:08.745Z,102849.50
2023-05-17T20:31:38.820Z,102856.88
2023-05-17T20:34:07.565Z,102843.84
2023-05-17T20:36:36.014Z,102854.56
2023-05-17T20:39:03.846Z,102851.16
2023-05-17T20:41:31.683Z,102843.22
2023-05-17T20:43:59.513Z,102852.72
2023-05-17T20:46:29.709Z,102852.91
2023-05-17T20:49:01.194Z,102851.34
2023-05-17T20:51:29.057Z,102836.47
2023-05-17T20:53:56.899Z,102842.38
2023-05-17T20:56:25.634Z,102855.97
2023-05-17T20:58:53.467Z,102856.63
2023-05-17T21:01:21.407Z,102854.22
2023-05-17T21:03:51.349Z,102858.03
2023-05-17T21:06:22.131Z,102855.97
2023-05-17T21:08:49.953Z,102847.72
2023-05-17T21:11:21.290Z,102852.25
2023-05-17T21:13:49.402Z,102856.63
2023-05-17T21:16:17.730Z,102855.09
2023-05-17T21:18:46.134Z,102864.13
2023-05-17T21:21:14.331Z,102858.03
2023-05-17T21:23:43.545Z,102859.78
2023-05-17T21:26:11.399Z,102856.28
2023-05-17T21:28:39.326Z,102858.41
2023-05-17T21:31:07.284Z,102860.38
2023-05-17T21:33:35.242Z,102854.63
2023-05-17T21:36:03.498Z,102861.78
2023-05-17T21:38:31.370Z,102854.78
2023-05-17T21:41:00.700Z,102855.75
2023-05-17T21:43:28.706Z,102852.72
2023-05-17T21:45:56.626Z,102858.03
2023-05-17T21:48:25.424Z,102838.03
2023-05-17T21:50:53.239Z,102857.56
2023-05-17T21:53:21.098Z,102856.97
2023-05-17T21:56:01.456Z,102858.72
2023-05-17T21:58:31.977Z,102845.75
2023-05-17T22:00:59.901Z,102863.63
2023-05-17T22:03:27.861Z,102857.69
2023-05-17T22:05:55.778Z,102850.66
2023-05-17T22:08:23.691Z,102854.69
2023-05-17T22:10:51.768Z,102864.94
2023-05-17T22:13:25.386Z,102855.84
2023-05-17T22:15:57.446Z,102859.97
2023-05-17T22:18:27.021Z,102862.78
2023-05-17T22:20:59.172Z,102867.31
2023-05-17T22:23:27.303Z,102866.97
2023-05-17T22:25:57.171Z,102877.81
2023-05-17T22:28:24.987Z,102848.75
2023-05-17T22:30:55.119Z,102872.63
2023-05-17T22:33:23.562Z,102878.25
2023-05-17T22:35:53.579Z,102874.91
2023-05-17T22:38:23.496Z,102878.75
2023-05-17T22:40:51.374Z,102880.03
2023-05-17T22:43:21.373Z,102883.75
2023-05-17T22:45:51.102Z,102876.72
2023-05-17T22:48:21.038Z,102881.28
2023-05-17T22:50:49.046Z,102884.22
2023-05-17T22:53:18.737Z,102881.75
2023-05-17T22:55:49.063Z,102882.00
2023-05-17T22:58:17.027Z,102879.72
2023-05-17T23:00:45.232Z,102888.56
2023-05-17T23:03:13.567Z,102875.03
2023-05-17T23:05:43.312Z,102875.09
2023-05-17T23:08:12.883Z,102880.63
2023-05-17T23:10:40.944Z,102875.53
2023-05-17T23:13:08.822Z,102877.44
2023-05-17T23:15:37.185Z,102872.72
2023-05-17T23:18:08.264Z,102875.69
2023-05-17T23:20:36.206Z,102871.34
2023-05-17T23:23:06.425Z,102845.31
2023-05-17T23:25:34.338Z,102872.31
2023-05-17T23:28:04.639Z,102879.19
2023-05-17T23:30:32.730Z,102883.66
2023-05-17T23:33:02.577Z,102873.75
2023-05-17T23:35:30.747Z,102878.41
2023-05-17T23:37:58.797Z,102881.31
2023-05-17T23:40:27.924Z,102873.19
2023-05-17T23:42:55.918Z,102880.44
2023-05-17T23:45:23.933Z,102877.59
2023-05-17T23:47:51.853Z,102874.06
2023-05-17T23:50:19.688Z,102872.31
2023-05-17T23:52:47.544Z,102876.59
2023-05-17T23:55:15.488Z,102871.19
2023-05-17T23:57:44.672Z,102872.81
